Time;durP1;ratioP1;P1;durP2;ratioP2;P2;SDS_P1;SDS_P2;PMS_P1;PMS_P2;Temp;Humidity;BMP_temperature;BMP_pressure;BME280_temperature;BME280_humidity;BME280_pressure;Samples;Min_cycle;Max_cycle;Signal;HPM_P1;HPM_P2
2023/02/05 00:01:49;;;;;;;17.42;9.98;;;;;;;8.07;47.55;103292.59;4929512;29;20044;-70
2023/02/05 00:04:17;;;;;;;16.13;10.15;;;;;;;8.07;47.70;103301.66;4948441;28;20550;-72
2023/02/05 00:06:45;;;;;;;16.80;10.32;;;;;;;8.08;47.81;103295.28;4963732;28;20039;-73
2023/02/05 00:09:13;;;;;;;17.88;10.63;;;;;;;8.08;47.69;103291.66;4949241;28;20038;-73
2023/02/05 00:11:40;;;;;;;19.88;10.68;;;;;;;8.09;47.91;103290.72;4930760;29;20044;-73
2023/02/05 00:14:09;;;;;;;17.23;10.00;;;;;;;8.10;48.30;103284.28;4948131;28;20104;-73
2023/02/05 00:16:38;;;;;;;15.82;10.10;;;;;;;8.11;48.15;103281.50;4954998;28;20117;-73
2023/02/05 00:19:06;;;;;;;18.90;11.38;;;;;;;8.11;48.37;103275.16;4958177;28;20040;-72
2023/02/05 00:21:35;;;;;;;19.85;11.00;;;;;;;8.10;48.09;103277.00;4943801;29;20071;-71
2023/02/05 00:24:03;;;;;;;19.42;11.10;;;;;;;8.10;47.93;103274.25;4939277;28;20048;-72
2023/02/05 00:26:31;;;;;;;16.52;11.25;;;;;;;8.10;47.75;103259.72;4953654;28;20042;-72
2023/02/05 00:28:59;;;;;;;17.65;11.82;;;;;;;8.07;47.83;103258.03;4944858;28;20048;-71
2023/02/05 00:31:27;;;;;;;18.50;11.23;;;;;;;8.06;48.06;103264.44;4942808;28;20074;-70
2023/02/05 00:33:59;;;;;;;17.65;10.73;;;;;;;8.04;47.99;103266.31;4930768;28;20326;-72
2023/02/05 00:36:27;;;;;;;17.85;10.85;;;;;;;8.01;48.05;103271.03;4933012;28;20594;-72
2023/02/05 00:38:55;;;;;;;18.58;11.25;;;;;;;7.99;48.33;103267.47;4945630;28;20044;-71
2023/02/05 00:41:24;;;;;;;17.92;9.85;;;;;;;7.99;48.67;103268.34;4950296;28;20097;-72
2023/02/05 00:43:52;;;;;;;17.35;10.13;;;;;;;7.98;48.27;103261.13;4945657;28;20511;-71
2023/02/05 00:46:20;;;;;;;18.08;10.70;;;;;;;7.96;48.77;103260.28;4957168;28;20046;-72
2023/02/05 00:48:47;;;;;;;17.08;9.95;;;;;;;7.98;48.67;103254.78;4955667;28;20094;-71
2023/02/05 00:51:17;;;;;;;19.15;10.23;;;;;;;7.99;48.92;103241.09;4937770;28;20508;-72
2023/02/05 00:53:45;;;;;;;17.98;10.10;;;;;;;7.96;48.78;103230.28;4932978;28;20044;-70
2023/02/05 00:56:13;;;;;;;16.17;9.95;;;;;;;7.99;48.73;103223.84;4940654;29;20189;-72
2023/02/05 00:58:46;;;;;;;14.40;9.55;;;;;;;7.98;48.68;103222.94;4939492;28;20050;-72
2023/02/05 01:01:14;;;;;;;16.10;10.68;;;;;;;7.96;48.95;103213.91;4946547;28;20062;-72
2023/02/05 01:03:43;;;;;;;15.55;10.00;;;;;;;7.99;48.65;103202.91;4934175;28;20575;-72
2023/02/05 01:06:12;;;;;;;14.27;9.90;;;;;;;7.98;48.48;103197.50;4952565;28;20052;-72
2023/02/05 01:08:41;;;;;;;18.27;11.90;;;;;;;7.98;48.89;103201.13;4939465;28;20044;-72
2023/02/05 01:11:10;;;;;;;17.58;10.32;;;;;;;7.97;48.66;103199.34;4970717;28;20577;-72
2023/02/05 01:13:39;;;;;;;17.23;9.98;;;;;;;7.95;49.20;103193.94;4953129;28;20130;-71
2023/02/05 01:16:09;;;;;;;20.63;10.23;;;;;;;7.92;48.86;103188.63;4947165;28;20039;-71
2023/02/05 01:18:37;;;;;;;19.20;11.30;;;;;;;7.91;48.69;103178.66;4935615;28;20059;-72
2023/02/05 01:21:05;;;;;;;19.33;10.98;;;;;;;7.90;48.55;103166.00;4935836;28;20052;-71
2023/02/05 01:23:33;;;;;;;16.65;10.65;;;;;;;7.86;48.32;103156.13;4976981;28;20045;-71
2023/02/05 01:26:02;;;;;;;24.05;11.88;;;;;;;7.86;48.43;103155.25;4945792;28;20047;-70
2023/02/05 01:28:30;;;;;;;19.85;11.68;;;;;;;7.81;48.23;103144.53;4942978;28;20056;-71
2023/02/05 01:30:58;;;;;;;21.08;11.00;;;;;;;7.78;48.72;103152.81;4934160;28;20043;-71
2023/02/05 01:33:25;;;;;;;22.13;10.85;;;;;;;7.76;48.47;103159.31;4944457;28;20052;-71
2023/02/05 01:35:53;;;;;;;16.88;10.68;;;;;;;7.73;48.20;103171.22;4971110;28;20047;-71
2023/02/05 01:38:21;;;;;;;20.58;10.82;;;;;;;7.71;48.75;103170.38;4952921;28;20113;-71
2023/02/05 01:40:49;;;;;;;15.38;10.02;;;;;;;7.69;48.79;103164.09;4934721;28;20568;-70
2023/02/05 01:43:19;;;;;;;20.48;10.27;;;;;;;7.69;49.27;103164.09;4934813;28;20050;-72
2023/02/05 01:46:11;;;;;;;17.63;10.40;;;;;;;7.68;49.67;103175.97;4936235;29;20051;-71
2023/02/05 01:48:43;;;;;;;17.65;9.85;;;;;;;7.67;49.09;103182.34;4937693;28;20057;-71
2023/02/05 01:51:15;;;;;;;16.73;9.68;;;;;;;7.65;49.49;103175.19;4947894;28;20102;-71
2023/02/05 01:53:46;;;;;;;20.40;10.60;;;;;;;7.64;49.14;103176.13;4932130;28;20048;-71
2023/02/05 01:56:19;;;;;;;16.50;9.65;;;;;;;7.67;49.46;103174.19;4955988;28;20407;-71
2023/02/05 01:58:54;;;;;;;16.70;9.40;;;;;;;7.68;49.78;103175.06;4957357;28;20043;-71
2023/02/05 02:01:22;;;;;;;15.73;9.10;;;;;;;7.67;49.39;103176.00;4955974;28;20051;-71
2023/02/05 02:03:53;;;;;;;17.90;10.27;;;;;;;7.68;49.30;103175.06;4938701;28;20043;-71
2023/02/05 02:06:21;;;;;;;18.17;10.35;;;;;;;7.68;49.37;103183.25;4948818;28;20051;-71
2023/02/05 02:08:49;;;;;;;15.90;9.23;;;;;;;7.68;49.43;103178.69;4948070;28;20443;-71
2023/02/05 02:11:19;;;;;;;19.30;9.85;;;;;;;7.69;49.62;103175.00;4950800;28;20127;-73
2023/02/05 02:13:51;;;;;;;16.85;9.50;;;;;;;7.71;49.52;103180.38;4937979;28;20055;-71
2023/02/05 02:16:20;;;;;;;16.70;10.20;;;;;;;7.68;49.31;103188.69;4940194;28;20506;-73
2023/02/05 02:18:48;;;;;;;17.77;9.68;;;;;;;7.71;49.34;103194.00;4957076;28;20294;-71
2023/02/05 02:21:38;;;;;;;16.85;9.48;;;;;;;7.73;49.88;103203.03;4941638;28;20420;-71
2023/02/05 02:24:30;;;;;;;17.00;9.13;;;;;;;7.72;50.15;103203.97;4930459;28;20044;-72
2023/02/05 02:27:18;;;;;;;15.93;9.00;;;;;;;7.73;50.30;103211.22;4938334;29;20091;-72
2023/02/05 02:29:55;;;;;;;18.35;8.55;;;;;;;7.73;50.03;103203.03;4937952;28;20130;-72
2023/02/05 02:32:30;;;;;;;16.58;8.32;;;;;;;7.74;49.99;103210.25;4934007;28;20101;-72
2023/02/05 02:35:07;;;;;;;14.85;9.18;;;;;;;7.76;50.54;103211.09;4945518;28;20051;-72
2023/02/05 02:37:39;;;;;;;15.52;8.32;;;;;;;7.74;49.84;103205.69;4928047;28;20522;-74
2023/02/05 02:40:13;;;;;;;16.10;8.43;;;;;;;7.73;50.21;103209.38;4934356;28;20109;-74
2023/02/05 02:42:47;;;;;;;14.13;8.55;;;;;;;7.78;50.13;103206.44;4944576;28;20067;-74
2023/02/05 02:45:20;;;;;;;15.02;8.90;;;;;;;7.77;50.08;103207.41;4942121;28;20062;-74
2023/02/05 02:47:52;;;;;;;16.48;8.75;;;;;;;7.76;49.99;103201.09;4933755;28;20445;-73
2023/02/05 02:50:25;;;;;;;16.27;8.70;;;;;;;7.76;50.49;103195.63;4936542;28;20050;-73
2023/02/05 02:52:55;;;;;;;15.70;8.40;;;;;;;7.77;49.73;103189.22;4940339;28;20125;-74
2023/02/05 02:55:25;;;;;;;15.18;7.85;;;;;;;7.78;50.28;103184.66;4942512;28;20051;-74
2023/02/05 02:57:55;;;;;;;15.88;8.20;;;;;;;7.79;50.40;103183.69;4950676;28;20039;-74
2023/02/05 03:00:28;;;;;;;14.13;8.10;;;;;;;7.80;50.52;103177.31;4930712;28;20396;-73
2023/02/05 03:03:02;;;;;;;15.57;8.00;;;;;;;7.79;50.61;103176.41;4938168;28;20130;-74
2023/02/05 03:05:31;;;;;;;16.00;7.78;;;;;;;7.80;50.47;103182.75;4935840;28;20473;-74
2023/02/05 03:08:06;;;;;;;14.80;7.55;;;;;;;7.83;50.71;103174.47;4935751;28;20040;-74
2023/02/05 03:10:41;;;;;;;11.73;7.15;;;;;;;7.84;50.42;103173.53;4933733;28;20058;-73
2023/02/05 03:13:10;;;;;;;15.55;7.97;;;;;;;7.82;50.24;103165.41;4942496;28;20031;-74
2023/02/05 03:15:45;;;;;;;11.77;7.05;;;;;;;7.83;50.71;103156.28;4939385;28;20044;-74
2023/02/05 03:18:15;;;;;;;13.07;6.85;;;;;;;7.84;50.44;103152.59;4932584;28;20569;-73
2023/02/05 03:20:49;;;;;;;12.52;7.00;;;;;;;7.86;50.74;103147.94;4939257;28;20504;-74
2023/02/05 03:23:18;;;;;;;16.35;7.03;;;;;;;7.86;50.46;103149.78;4940887;28;20045;-73
2023/02/05 03:25:46;;;;;;;12.93;7.03;;;;;;;7.86;50.31;103152.53;4944031;28;20054;-73
2023/02/05 03:28:16;;;;;;;12.02;7.20;;;;;;;7.86;50.25;103145.22;4942320;28;20389;-74
2023/02/05 03:30:54;;;;;;;14.95;7.15;;;;;;;7.90;50.68;103137.84;4942178;28;20087;-73
2023/02/05 03:33:45;;;;;;;14.27;6.80;;;;;;;7.89;51.26;103138.78;4939884;28;20047;-73
2023/02/05 03:36:23;;;;;;;12.27;6.40;;;;;;;7.87;50.72;103137.94;4932173;28;20054;-73
2023/02/05 03:39:07;;;;;;;8.95;6.05;;;;;;;7.90;50.70;103126.94;4932918;28;20488;-74
2023/02/05 03:41:56;;;;;;;13.00;5.88;;;;;;;7.86;50.58;103134.31;4934339;28;20599;-73
2023/02/05 03:45:04;;;;;;;12.80;6.20;;;;;;;7.87;51.10;103136.09;4937788;28;20081;-73
2023/02/05 03:47:51;;;;;;;12.98;7.03;;;;;;;7.89;51.11;103123.31;4937499;28;20054;-73
2023/02/05 03:50:25;;;;;;;11.25;5.63;;;;;;;7.90;50.73;103121.47;4941004;28;20683;-73
2023/02/05 03:53:01;;;;;;;12.18;6.60;;;;;;;7.93;50.70;103115.88;4934361;28;20048;-73
2023/02/05 03:55:33;;;;;;;12.30;6.00;;;;;;;7.91;50.54;103118.69;4935398;28;20102;-73
2023/02/05 03:58:08;;;;;;;13.85;5.93;;;;;;;7.90;50.78;103118.75;4932544;28;20050;-73
2023/02/05 04:00:37;;;;;;;12.60;6.20;;;;;;;7.90;50.30;103133.25;4935802;28;20048;-73
2023/02/05 04:03:07;;;;;;;11.40;5.78;;;;;;;7.92;50.68;103133.22;4938339;28;20224;-74
2023/02/05 04:05:36;;;;;;;11.77;6.10;;;;;;;7.91;50.48;103131.44;4934189;28;20143;-73
2023/02/05 04:08:04;;;;;;;11.52;6.43;;;;;;;7.91;50.43;103135.06;4934701;28;20040;-73
2023/02/05 04:10:39;;;;;;;13.18;5.65;;;;;;;7.91;50.40;103134.16;4942864;28;20388;-74
2023/02/05 04:13:06;;;;;;;13.27;6.45;;;;;;;7.92;50.45;103134.09;4937152;28;20142;-73
2023/02/05 04:15:35;;;;;;;11.70;6.50;;;;;;;7.91;50.39;103129.59;4937389;28;20054;-73
2023/02/05 04:18:08;;;;;;;15.50;7.25;;;;;;;7.92;50.42;103136.81;4929779;28;20524;-73
2023/02/05 04:20:36;;;;;;;11.45;6.40;;;;;;;7.91;50.79;103128.69;4939040;28;20051;-74
2023/02/05 04:23:06;;;;;;;15.73;7.75;;;;;;;7.91;50.50;103137.78;4935781;28;20048;-73
2023/02/05 04:25:36;;;;;;;15.77;7.03;;;;;;;7.92;50.53;103141.38;4939201;28;20052;-73
2023/02/05 04:28:06;;;;;;;14.77;7.10;;;;;;;7.92;50.81;103144.13;4933976;28;20048;-74
2023/02/05 04:30:34;;;;;;;12.98;7.43;;;;;;;7.90;50.36;103152.34;4931631;28;20705;-74
2023/02/05 04:33:03;;;;;;;13.68;7.60;;;;;;;7.90;50.69;103155.06;4941890;28;20553;-74
2023/02/05 04:35:33;;;;;;;18.08;8.23;;;;;;;7.92;50.49;103152.28;4938421;28;20508;-73
2023/02/05 04:38:01;;;;;;;15.00;8.20;;;;;;;7.89;50.71;103156.03;4935606;28;20040;-73
2023/02/05 04:40:29;;;;;;;17.33;8.20;;;;;;;7.90;50.45;103162.38;4934421;28;20134;-74
2023/02/05 04:42:57;;;;;;;17.85;9.55;;;;;;;7.88;50.59;103164.25;4937102;28;20385;-73
2023/02/05 04:45:29;;;;;;;20.75;9.68;;;;;;;7.88;50.49;103158.81;4939175;28;20050;-74
2023/02/05 04:47:58;;;;;;;18.17;9.43;;;;;;;7.84;50.70;103168.06;4930204;28;20291;-74
2023/02/05 04:50:26;;;;;;;19.83;10.98;;;;;;;7.86;50.47;103166.16;4927594;28;20056;-74
2023/02/05 04:52:55;;;;;;;21.27;10.30;;;;;;;7.86;50.72;103157.97;4941220;28;20047;-74
2023/02/05 04:55:23;;;;;;;21.20;9.60;;;;;;;7.85;50.86;103161.63;4939765;28;20051;-73
2023/02/05 04:57:51;;;;;;;20.30;10.27;;;;;;;7.84;50.73;103149.00;4934067;28;20667;-73
2023/02/05 05:00:19;;;;;;;21.75;10.05;;;;;;;7.83;50.97;103150.81;4944133;28;20047;-74
2023/02/05 05:02:47;;;;;;;20.95;10.15;;;;;;;7.83;51.09;103139.03;4935073;28;20042;-74
2023/02/05 05:05:16;;;;;;;21.77;10.80;;;;;;;7.83;51.04;103149.94;4958936;28;20047;-74
2023/02/05 05:07:43;;;;;;;19.42;10.65;;;;;;;7.82;51.03;103146.31;4931980;28;20039;-74
2023/02/05 05:10:13;;;;;;;20.92;10.57;;;;;;;7.82;51.26;103149.03;4945967;28;20059;-74
2023/02/05 05:12:40;;;;;;;21.10;10.40;;;;;;;7.81;51.21;103143.66;4935777;28;20551;-74
2023/02/05 05:15:09;;;;;;;19.52;10.10;;;;;;;7.82;51.33;103134.53;4941097;28;20505;-73
2023/02/05 05:17:36;;;;;;;20.25;9.82;;;;;;;7.81;51.19;103130.91;4941212;28;20386;-73
2023/02/05 05:20:05;;;;;;;20.30;10.65;;;;;;;7.82;51.57;103131.78;4935833;28;20157;-74
2023/02/05 05:22:33;;;;;;;18.42;9.85;;;;;;;7.83;51.66;103133.56;4936899;28;20445;-73
2023/02/05 05:25:01;;;;;;;19.75;10.45;;;;;;;7.83;51.55;103119.94;4943459;28;20039;-73
2023/02/05 05:27:30;;;;;;;19.65;10.50;;;;;;;7.84;51.65;103130.78;4948652;28;20048;-73
2023/02/05 05:29:58;;;;;;;19.13;10.15;;;;;;;7.83;51.41;103128.13;4933581;29;20054;-74
2023/02/05 05:32:26;;;;;;;17.38;9.55;;;;;;;7.83;51.81;103131.75;4921494;29;20548;-73
2023/02/05 05:34:55;;;;;;;19.13;10.20;;;;;;;7.83;51.75;103131.75;4920253;29;20035;-73
2023/02/05 05:37:23;;;;;;;19.60;10.00;;;;;;;7.83;51.61;103131.75;4917812;29;20048;-74
2023/02/05 05:45:24;;;;;;;17.80;9.25;;;;;;;7.82;51.56;103115.44;4926569;28;20130;-73
2023/02/05 05:47:52;;;;;;;20.02;10.23;;;;;;;7.83;51.71;103125.41;4919964;29;20060;-74
2023/02/05 05:50:20;;;;;;;18.45;9.90;;;;;;;7.83;51.41;103128.13;4924909;29;20158;-74
2023/02/05 05:52:47;;;;;;;20.30;11.23;;;;;;;7.84;51.80;103127.19;4917049;29;20074;-73
2023/02/05 05:55:15;;;;;;;20.90;11.02;;;;;;;7.83;51.60;103126.28;4928551;28;20523;-73
2023/02/05 05:57:45;;;;;;;24.48;12.63;;;;;;;7.85;51.93;103120.75;4937417;29;20110;-73
2023/02/05 06:00:14;;;;;;;20.80;11.88;;;;;;;7.83;51.99;103126.28;4944409;28;20060;-73
2023/02/05 06:02:43;;;;;;;25.92;13.13;;;;;;;7.84;51.56;103124.44;4937607;28;20055;-73
2023/02/05 06:05:12;;;;;;;23.40;12.82;;;;;;;7.85;52.13;103127.09;4930285;28;20044;-73
2023/02/05 06:07:40;;;;;;;27.15;14.13;;;;;;;7.83;51.80;103137.19;4933440;28;20412;-73
2023/02/05 06:10:09;;;;;;;25.42;13.27;;;;;;;7.84;51.50;103127.19;4943201;28;20070;-74
2023/02/05 06:12:36;;;;;;;26.63;14.13;;;;;;;7.84;51.88;103127.19;4937699;28;20059;-73
2023/02/05 06:15:07;;;;;;;24.60;13.23;;;;;;;7.85;51.90;103132.53;4932574;28;20130;-73
2023/02/05 06:17:35;;;;;;;24.65;13.48;;;;;;;7.84;52.03;103127.19;4926228;29;20051;-73
2023/02/05 06:20:02;;;;;;;26.63;14.93;;;;;;;7.83;52.08;103126.28;4915207;28;20056;-73
2023/02/05 06:22:30;;;;;;;25.75;14.02;;;;;;;7.83;52.18;103118.09;4916739;29;20067;-74
2023/02/05 06:24:58;;;;;;;26.05;13.98;;;;;;;7.83;52.11;103111.78;4911712;29;20044;-73
2023/02/05 06:27:26;;;;;;;25.60;14.35;;;;;;;7.83;52.03;103115.38;4920470;28;20048;-74
2023/02/05 06:29:54;;;;;;;29.42;14.30;;;;;;;7.83;52.16;103112.66;4928553;28;20097;-73
2023/02/05 06:32:23;;;;;;;26.08;15.02;;;;;;;7.85;51.79;103115.28;4938384;28;20081;-73
2023/02/05 06:34:53;;;;;;;25.85;14.65;;;;;;;7.82;52.03;103113.59;4939438;28;20137;-73
2023/02/05 06:37:24;;;;;;;25.17;14.82;;;;;;;7.83;51.90;103111.78;4939536;28;20075;-74
2023/02/05 06:40:14;;;;;;;23.50;13.32;;;;;;;7.83;51.96;103119.94;4932138;28;20044;-73
2023/02/05 06:42:42;;;;;;;27.25;14.40;;;;;;;7.83;51.80;103114.50;4932628;28;20404;-74
2023/02/05 06:45:11;;;;;;;25.42;14.07;;;;;;;7.83;51.87;103112.66;4937399;28;20508;-73
2023/02/05 06:47:40;;;;;;;25.17;13.65;;;;;;;7.84;52.07;103106.25;4929415;28;20194;-73
2023/02/05 06:50:08;;;;;;;23.30;13.32;;;;;;;7.83;51.63;103106.31;4935712;28;20058;-74
2023/02/05 06:52:37;;;;;;;22.27;12.50;;;;;;;7.82;52.13;103102.69;4931740;28;20054;-73
2023/02/05 06:55:05;;;;;;;20.00;12.32;;;;;;;7.82;52.10;103099.97;4930355;28;20047;-73
2023/02/05 06:57:33;;;;;;;23.25;12.65;;;;;;;7.82;52.13;103099.09;4944404;28;20535;-73
2023/02/05 07:00:01;;;;;;;21.17;12.25;;;;;;;7.81;52.21;103095.47;4938291;28;20507;-73
2023/02/05 07:02:29;;;;;;;21.73;12.90;;;;;;;7.80;51.85;103093.69;4938137;28;20052;-73
2023/02/05 07:04:58;;;;;;;22.45;12.48;;;;;;;7.82;51.94;103094.53;4934811;28;20040;-73
2023/02/05 07:07:26;;;;;;;21.38;12.57;;;;;;;7.80;51.67;103101.88;4936527;28;20043;-73
2023/02/05 07:09:53;;;;;;;22.77;13.02;;;;;;;7.80;51.86;103100.97;4940667;28;20058;-73
2023/02/05 07:12:22;;;;;;;21.35;12.63;;;;;;;7.80;51.90;103095.53;4940101;29;20054;-73
2023/02/05 07:14:50;;;;;;;19.13;11.35;;;;;;;7.80;52.21;103092.78;4943595;28;20048;-73
2023/02/05 07:17:19;;;;;;;21.88;12.27;;;;;;;7.79;51.85;103097.34;4935588;28;20443;-73
2023/02/05 07:19:47;;;;;;;17.88;10.95;;;;;;;7.79;51.85;103094.63;4939054;28;20054;-73
2023/02/05 07:22:16;;;;;;;16.98;10.50;;;;;;;7.79;51.70;103086.44;4937272;28;20047;-74
2023/02/05 07:24:44;;;;;;;17.98;10.55;;;;;;;7.78;51.92;103091.97;4940779;28;20504;-73
2023/02/05 07:27:12;;;;;;;19.88;11.52;;;;;;;7.77;52.00;103093.81;4958730;28;20047;-73
2023/02/05 07:29:40;;;;;;;18.40;10.30;;;;;;;7.78;52.17;103097.41;4939459;28;20411;-73
2023/02/05 07:32:08;;;;;;;16.60;9.75;;;;;;;7.78;52.12;103100.13;4942673;28;20539;-73
2023/02/05 07:34:36;;;;;;;16.50;9.45;;;;;;;7.77;51.81;103091.06;4933895;28;20047;-73
2023/02/05 07:37:04;;;;;;;20.08;10.60;;;;;;;7.76;52.10;103092.06;4937083;28;20039;-73
2023/02/05 07:39:33;;;;;;;17.95;9.85;;;;;;;7.77;52.14;103101.97;4938553;28;20044;-73
2023/02/05 07:42:01;;;;;;;13.80;8.95;;;;;;;7.75;52.08;103098.44;4937017;28;20444;-73
2023/02/05 07:44:37;;;;;;;16.63;9.45;;;;;;;7.75;51.76;103097.56;4941907;28;20078;-73
2023/02/05 07:47:05;;;;;;;15.95;9.15;;;;;;;7.75;51.73;103092.09;4934319;28;20067;-73
2023/02/05 07:49:33;;;;;;;16.85;9.23;;;;;;;7.73;51.92;103094.88;4938743;28;20049;-73
2023/02/05 07:52:00;;;;;;;15.77;9.38;;;;;;;7.73;51.85;103089.44;4937828;28;20524;-73
2023/02/05 07:54:28;;;;;;;14.32;8.73;;;;;;;7.72;51.90;103090.38;4936207;28;20039;-73
2023/02/05 07:56:58;;;;;;;16.58;10.10;;;;;;;7.74;51.96;103093.06;4957535;28;20079;-73
2023/02/05 07:59:27;;;;;;;15.05;9.48;;;;;;;7.72;52.32;103094.94;4938603;28;20512;-73
2023/02/05 08:01:54;;;;;;;16.45;9.43;;;;;;;7.72;51.99;103092.22;4943087;28;20051;-73
2023/02/05 08:04:22;;;;;;;14.90;9.63;;;;;;;7.71;52.27;103093.16;4938683;28;20452;-73
2023/02/05 08:06:50;;;;;;;15.20;9.30;;;;;;;7.70;51.99;103095.00;4965667;28;20388;-73
2023/02/05 08:09:18;;;;;;;15.13;8.82;;;;;;;7.69;51.87;103095.94;4911775;28;20055;-74
2023/02/05 08:11:46;;;;;;;13.98;8.40;;;;;;;7.69;52.12;103089.59;4929156;28;20047;-73
2023/02/05 08:14:15;;;;;;;15.32;9.48;;;;;;;7.69;51.93;103092.31;4927040;28;20047;-73
2023/02/05 08:16:43;;;;;;;14.02;8.60;;;;;;;7.66;51.99;103093.38;4952913;28;20055;-73
2023/02/05 08:19:15;;;;;;;13.60;8.02;;;;;;;7.67;51.95;103096.97;4942237;28;20511;-73
2023/02/05 08:21:43;;;;;;;13.23;8.13;;;;;;;7.61;51.71;103100.81;4933145;28;20105;-73
2023/02/05 08:24:11;;;;;;;12.82;8.30;;;;;;;7.60;52.28;103095.44;4928610;28;20516;-73
2023/02/05 08:26:39;;;;;;;12.27;7.90;;;;;;;7.57;51.95;103100.06;4939214;28;20070;-73
2023/02/05 08:29:07;;;;;;;13.20;7.50;;;;;;;7.57;52.23;103091.91;4936341;28;20055;-73
2023/02/05 08:31:37;;;;;;;11.07;7.45;;;;;;;7.56;52.07;103091.94;4936035;28;20046;-73
2023/02/05 08:34:05;;;;;;;10.85;7.15;;;;;;;7.55;52.34;103101.06;4939091;28;20047;-73
2023/02/05 08:36:33;;;;;;;10.30;6.68;;;;;;;7.52;52.07;103101.16;4946359;28;20334;-71
2023/02/05 08:39:01;;;;;;;10.38;6.07;;;;;;;7.51;52.19;103110.31;4933525;28;20401;-71
2023/02/05 08:41:29;;;;;;;9.27;6.32;;;;;;;7.50;51.99;103112.16;4942568;28;20047;-71
2023/02/05 08:43:57;;;;;;;11.68;6.82;;;;;;;7.48;52.36;103111.31;4938556;28;20055;-71
2023/02/05 08:46:25;;;;;;;8.55;5.13;;;;;;;7.50;52.09;103114.00;4940525;28;20039;-71
2023/02/05 08:49:05;;;;;;;7.85;4.20;;;;;;;7.48;51.84;103118.59;4930849;28;20223;-71
2023/02/05 08:51:34;;;;;;;6.00;3.10;;;;;;;7.45;51.80;103111.44;4942271;28;20047;-71
2023/02/05 08:54:02;;;;;;;4.75;2.80;;;;;;;7.45;51.82;103116.88;4937837;28;20048;-71
2023/02/05 08:56:30;;;;;;;4.63;2.40;;;;;;;7.44;51.33;103119.66;4939163;28;20051;-70
2023/02/05 08:58:58;;;;;;;3.92;2.20;;;;;;;7.41;51.10;103115.25;4939076;28;20600;-71
2023/02/05 09:01:26;;;;;;;3.15;1.77;;;;;;;7.39;51.50;103128.03;4954918;28;20408;-71
2023/02/05 09:03:54;;;;;;;4.07;1.88;;;;;;;7.37;51.14;103131.75;4950935;28;20043;-71
2023/02/05 09:06:23;;;;;;;2.90;1.63;;;;;;;7.37;50.89;103120.84;4937306;28;20043;-71
2023/02/05 09:08:51;;;;;;;2.88;1.52;;;;;;;7.33;51.39;103128.25;4939903;28;20047;-71
2023/02/05 09:11:20;;;;;;;3.80;1.80;;;;;;;7.34;51.25;103137.31;4934541;28;20047;-71
2023/02/05 09:13:48;;;;;;;4.00;1.65;;;;;;;7.31;51.29;103132.88;4936612;28;20051;-71
2023/02/05 09:16:16;;;;;;;3.67;1.42;;;;;;;7.28;50.95;103137.53;4942624;28;20447;-71
2023/02/05 09:18:44;;;;;;;3.97;1.70;;;;;;;7.28;50.98;103149.31;4936855;28;20122;-71
2023/02/05 09:21:13;;;;;;;2.83;1.33;;;;;;;7.28;50.87;103142.97;4938045;28;20043;-71
2023/02/05 09:23:42;;;;;;;3.90;1.60;;;;;;;7.27;51.29;103143.97;4959979;28;20068;-71
2023/02/05 09:26:10;;;;;;;5.05;1.73;;;;;;;7.24;50.95;103147.66;4935026;28;20538;-71
2023/02/05 09:28:38;;;;;;;3.13;1.85;;;;;;;7.25;51.00;103148.56;4934133;28;20052;-71
2023/02/05 09:31:08;;;;;;;3.58;1.20;;;;;;;7.24;50.86;103147.66;4941629;28;20043;-71
2023/02/05 09:33:36;;;;;;;3.50;1.10;;;;;;;7.22;50.71;103149.56;4934779;28;20055;-71
2023/02/05 09:36:08;;;;;;;2.85;1.00;;;;;;;7.23;50.90;103150.44;4942975;28;20055;-71
2023/02/05 09:38:36;;;;;;;4.40;1.50;;;;;;;7.18;50.73;103154.25;4942704;28;20451;-71
2023/02/05 09:41:15;;;;;;;2.30;1.13;;;;;;;7.21;50.84;103155.94;4939888;28;20047;-71
2023/02/05 09:43:50;;;;;;;1.85;0.88;;;;;;;7.20;50.65;103151.44;4940848;28;20051;-71
2023/02/05 09:46:26;;;;;;;4.47;1.50;;;;;;;7.19;50.59;103161.44;4942088;28;20043;-71
2023/02/05 09:48:59;;;;;;;2.72;1.27;;;;;;;7.19;50.86;103153.28;4936121;28;20056;-71
2023/02/05 09:51:33;;;;;;;4.20;1.70;;;;;;;7.18;50.79;103165.13;4935099;28;20060;-71
2023/02/05 09:54:11;;;;;;;2.97;1.50;;;;;;;7.19;50.64;103157.81;4942528;28;20051;-71
2023/02/05 09:56:42;;;;;;;4.03;1.33;;;;;;;7.19;50.60;103168.72;4930308;28;20040;-72
2023/02/05 09:59:15;;;;;;;3.13;1.15;;;;;;;7.17;50.93;103168.81;4938902;28;20224;-71
2023/02/05 10:01:47;;;;;;;3.30;1.20;;;;;;;7.16;50.81;103161.56;4937924;28;20048;-70
2023/02/05 10:04:15;;;;;;;2.88;1.00;;;;;;;7.14;50.58;103168.91;4937699;28;20516;-70
2023/02/05 10:07:15;;;;;;;3.65;1.05;;;;;;;7.16;50.67;103171.56;4944856;28;20587;-70
2023/02/05 10:09:59;;;;;;;3.60;1.15;;;;;;;7.15;50.76;103169.78;4965010;28;20070;-69
2023/02/05 10:12:41;;;;;;;5.50;1.27;;;;;;;7.15;51.03;103169.78;4941065;28;20098;-71
2023/02/05 10:15:25;;;;;;;3.47;1.70;;;;;;;7.14;51.13;103163.47;4989525;28;20105;-70
2023/02/05 10:18:08;;;;;;;3.70;1.50;;;;;;;7.16;50.99;103152.53;4954614;28;20051;-70
2023/02/05 10:20:52;;;;;;;3.63;1.55;;;;;;;7.15;50.93;103161.63;4942238;28;20040;-69
2023/02/05 10:23:34;;;;;;;3.80;1.38;;;;;;;7.17;51.08;103170.63;4941627;28;20142;-70
2023/02/05 10:26:09;;;;;;;3.75;1.50;;;;;;;7.14;50.98;103165.28;4937629;28;20082;-68
2023/02/05 10:28:54;;;;;;;3.15;1.15;;;;;;;7.17;51.20;103160.63;4933842;28;20499;-70
2023/02/05 10:31:27;;;;;;;2.47;1.10;;;;;;;7.16;51.07;103155.25;4940886;28;20493;-69
2023/02/05 10:34:02;;;;;;;;;;;;;;;6.92;51.68;103156.13;4949330;28;20044;-70
2023/02/05 10:36:31;;;;;;;2.50;1.00;;;;;;;7.10;50.98;103150.03;4948234;29;20394;-70
2023/02/05 10:39:00;;;;;;;2.13;0.98;;;;;;;7.14;50.69;103149.84;4941934;28;20050;-71
2023/02/05 10:41:35;;;;;;;3.80;1.13;;;;;;;7.16;50.82;103139.78;4942550;28;20051;-71
2023/02/05 10:44:12;;;;;;;4.95;1.20;;;;;;;7.17;51.23;103141.56;4934374;28;20050;-71
2023/02/05 10:46:41;;;;;;;3.85;1.17;;;;;;;7.17;50.99;103141.56;4931221;28;20097;-70
2023/02/05 10:49:15;;;;;;;2.45;1.30;;;;;;;7.17;51.12;103141.56;4938517;28;20051;-72
2023/02/05 10:51:45;;;;;;;4.22;1.23;;;;;;;7.17;51.01;103132.50;4936917;28;20400;-71
2023/02/05 10:54:20;;;;;;;3.53;1.30;;;;;;;7.19;51.06;103130.59;4938680;28;20044;-71
2023/02/05 10:56:48;;;;;;;5.15;1.15;;;;;;;7.17;51.25;103140.69;4938505;28;20571;-71
2023/02/05 10:59:22;;;;;;;3.78;1.13;;;;;;;7.20;51.28;103137.81;4936143;28;20047;-72
2023/02/05 11:01:51;;;;;;;3.95;1.27;;;;;;;7.19;51.07;103147.81;4933862;28;20039;-71
2023/02/05 11:04:26;;;;;;;3.53;1.60;;;;;;;7.21;51.17;103155.94;4940381;28;20113;-70
2023/02/05 11:06:54;;;;;;;4.90;1.38;;;;;;;7.19;51.37;103150.56;4940081;28;20063;-69
2023/02/05 11:09:34;;;;;;;5.40;1.45;;;;;;;7.24;51.05;103146.78;4931195;28;20093;-69
2023/02/05 11:12:05;;;;;;;4.47;1.38;;;;;;;7.22;50.84;103146.84;4959659;28;20031;-70
2023/02/05 11:14:36;;;;;;;4.03;1.08;;;;;;;7.23;51.39;103137.72;4959322;28;20484;-70
2023/02/05 11:17:10;;;;;;;3.25;1.05;;;;;;;7.23;51.34;103143.16;4933096;28;20184;-70
2023/02/05 11:19:38;;;;;;;4.13;1.10;;;;;;;7.22;51.19;103143.22;4930074;28;20672;-70
2023/02/05 11:22:06;;;;;;;3.10;1.00;;;;;;;7.23;51.47;103153.16;4937405;28;20404;-69
2023/02/05 11:24:38;;;;;;;6.80;2.22;;;;;;;7.23;51.05;103145.88;4959084;28;20047;-69
2023/02/05 11:27:27;;;;;;;5.00;1.30;;;;;;;7.22;51.38;103148.66;4940193;28;20393;-69
2023/02/05 11:29:59;;;;;;;3.63;1.40;;;;;;;7.24;51.47;103149.50;4936797;28;20499;-69
2023/02/05 11:32:35;;;;;;;5.95;1.50;;;;;;;7.22;51.55;103146.84;4939732;28;20044;-69
2023/02/05 11:35:17;;;;;;;4.45;1.30;;;;;;;7.24;51.56;103150.41;4932581;28;20048;-69
2023/02/05 11:37:48;;;;;;;5.75;1.40;;;;;;;7.20;51.57;103146.88;4934550;28;20040;-69
2023/02/05 11:40:21;;;;;;;3.78;1.70;;;;;;;7.24;51.46;103150.41;4938076;28;20043;-69
2023/02/05 11:43:00;;;;;;;5.72;1.50;;;;;;;7.22;51.40;103141.38;4938363;28;20512;-69
2023/02/05 11:45:31;;;;;;;8.38;1.88;;;;;;;7.21;51.49;103145.06;4941552;28;20132;-69
2023/02/05 11:48:04;;;;;;;7.63;1.70;;;;;;;7.22;51.38;103144.09;4950013;28;20040;-69